sensor_id;sensor_type;location;lat;lon;timestamp;pressure;altitude;pressure_sealevel;temperature;humidity
75051;BME280;63628;47.656;11.310;2023-03-14T00:01:08;93381.53;;;11.20;72.84
75051;BME280;63628;47.656;11.310;2023-03-14T00:03:35;93380.22;;;11.17;73.55
75051;BME280;63628;47.656;11.310;2023-03-14T00:06:02;93397.94;;;11.17;73.98
75051;BME280;63628;47.656;11.310;2023-03-14T00:08:29;93390.56;;;10.98;67.43
75051;BME280;63628;47.656;11.310;2023-03-14T00:10:55;93392.41;;;11.08;73.12
75051;BME280;63628;47.656;11.310;2023-03-14T00:13:25;93406.19;;;10.95;73.89
75051;BME280;63628;47.656;11.310;2023-03-14T00:15:51;93400.34;;;11.13;73.55
75051;BME280;63628;47.656;11.310;2023-03-14T00:18:18;93400.88;;;11.15;73.75
75051;BME280;63628;47.656;11.310;2023-03-14T00:20:46;93407.50;;;11.13;73.71
75051;BME280;63628;47.656;11.310;2023-03-14T00:23:12;93404.31;;;11.16;73.51
75051;BME280;63628;47.656;11.310;2023-03-14T00:25:39;93402.72;;;11.20;73.17
75051;BME280;63628;47.656;11.310;2023-03-14T00:28:05;93397.94;;;11.17;73.74
75051;BME280;63628;47.656;11.310;2023-03-14T00:30:37;93388.41;;;11.16;73.85
75051;BME280;63628;47.656;11.310;2023-03-14T00:33:04;93380.72;;;11.19;72.90
75051;BME280;63628;47.656;11.310;2023-03-14T00:35:30;93380.03;;;10.83;73.28
75051;BME280;63628;47.656;11.310;2023-03-14T00:37:57;93392.69;;;11.06;73.89
75051;BME280;63628;47.656;11.310;2023-03-14T00:40:23;93407.50;;;11.13;73.80
75051;BME280;63628;47.656;11.310;2023-03-14T00:42:50;93403.50;;;11.15;73.05
75051;BME280;63628;47.656;11.310;2023-03-14T00:45:17;93412.00;;;11.12;72.71
75051;BME280;63628;47.656;11.310;2023-03-14T00:47:44;93421.28;;;10.08;71.23
75051;BME280;63628;47.656;11.310;2023-03-14T00:50:13;93421.06;;;10.75;74.59
75051;BME280;63628;47.656;11.310;2023-03-14T00:52:39;93421.00;;;11.01;74.32
75051;BME280;63628;47.656;11.310;2023-03-14T00:55:06;93425.53;;;11.05;74.05
75051;BME280;63628;47.656;11.310;2023-03-14T00:57:33;93427.09;;;11.06;73.61
75051;BME280;63628;47.656;11.310;2023-03-14T01:00:00;93426.03;;;11.07;74.40
75051;BME280;63628;47.656;11.310;2023-03-14T01:02:26;93430.53;;;11.07;74.08
75051;BME280;63628;47.656;11.310;2023-03-14T01:04:54;93428.69;;;11.07;74.22
75051;BME280;63628;47.656;11.310;2023-03-14T01:07:21;93420.22;;;11.10;73.84
75051;BME280;63628;47.656;11.310;2023-03-14T01:09:51;93415.97;;;11.15;73.30
75051;BME280;63628;47.656;11.310;2023-03-14T01:12:18;93404.31;;;11.16;73.35
75051;BME280;63628;47.656;11.310;2023-03-14T01:14:44;93413.34;;;11.09;73.73
75051;BME280;63628;47.656;11.310;2023-03-14T01:17:11;93417.03;;;11.08;73.78
75051;BME280;63628;47.656;11.310;2023-03-14T01:19:38;93422.59;;;11.07;70.79
75051;BME280;63628;47.656;11.310;2023-03-14T01:22:06;93424.25;;;10.67;73.10
75051;BME280;63628;47.656;11.310;2023-03-14T01:24:32;93414.75;;;10.46;72.75
75051;BME280;63628;47.656;11.310;2023-03-14T01:26:59;93431.91;;;10.23;72.48
75051;BME280;63628;47.656;11.310;2023-03-14T01:29:26;93428.72;;;10.87;74.30
75051;BME280;63628;47.656;11.310;2023-03-14T01:31:52;93432.41;;;10.91;73.85
75051;BME280;63628;47.656;11.310;2023-03-14T01:34:19;93437.97;;;10.85;72.06
75051;BME280;63628;47.656;11.310;2023-03-14T01:36:46;93445.44;;;10.42;74.10
75051;BME280;63628;47.656;11.310;2023-03-14T01:39:14;93456.06;;;9.64;77.53
75051;BME280;63628;47.656;11.310;2023-03-14T01:41:41;93458.63;;;10.32;77.52
75051;BME280;63628;47.656;11.310;2023-03-14T01:44:09;93457.91;;;9.69;79.54
75051;BME280;63628;47.656;11.310;2023-03-14T01:46:38;93454.66;;;10.29;76.71
75051;BME280;63628;47.656;11.310;2023-03-14T01:49:10;93458.38;;;10.74;75.57
75051;BME280;63628;47.656;11.310;2023-03-14T01:51:42;93462.34;;;10.82;75.38
75051;BME280;63628;47.656;11.310;2023-03-14T01:54:16;93468.16;;;10.63;75.85
75051;BME280;63628;47.656;11.310;2023-03-14T01:56:46;93468.16;;;10.84;74.99
75051;BME280;63628;47.656;11.310;2023-03-14T01:59:15;93475.03;;;10.85;74.30
75051;BME280;63628;47.656;11.310;2023-03-14T02:01:44;93485.91;;;10.68;75.23
75051;BME280;63628;47.656;11.310;2023-03-14T02:04:13;93486.69;;;10.73;75.76
75051;BME280;63628;47.656;11.310;2023-03-14T02:06:47;93487.75;;;10.83;74.81
75051;BME280;63628;47.656;11.310;2023-03-14T02:09:16;93482.94;;;10.34;76.15
75051;BME280;63628;47.656;11.310;2023-03-14T02:11:43;93476.91;;;10.43;74.87
75051;BME280;63628;47.656;11.310;2023-03-14T02:14:17;93482.16;;;10.33;75.97
75051;BME280;63628;47.656;11.310;2023-03-14T02:16:45;93481.41;;;10.63;75.70
75051;BME280;63628;47.656;11.310;2023-03-14T02:19:13;93487.09;;;9.99;72.74
75051;BME280;63628;47.656;11.310;2023-03-14T02:21:49;93488.00;;;10.71;75.72
75051;BME280;63628;47.656;11.310;2023-03-14T02:24:27;93499.91;;;10.63;75.25
75051;BME280;63628;47.656;11.310;2023-03-14T02:27:06;93484.03;;;10.43;76.24
75051;BME280;63628;47.656;11.310;2023-03-14T02:29:33;93491.19;;;10.68;74.90
75051;BME280;63628;47.656;11.310;2023-03-14T02:32:02;93481.94;;;10.60;75.10
75051;BME280;63628;47.656;11.310;2023-03-14T02:34:29;93483.28;;;9.70;73.58
75051;BME280;63628;47.656;11.310;2023-03-14T02:36:58;93476.63;;;10.60;75.42
75051;BME280;63628;47.656;11.310;2023-03-14T02:39:30;93465.78;;;10.52;74.61
75051;BME280;63628;47.656;11.310;2023-03-14T02:41:59;93466.81;;;10.30;75.73
75051;BME280;63628;47.656;11.310;2023-03-14T02:47:43;93457.03;;;10.31;75.34
75051;BME280;63628;47.656;11.310;2023-03-14T02:50:13;93460.50;;;10.52;74.81
75051;BME280;63628;47.656;11.310;2023-03-14T02:52:41;93469.50;;;10.51;75.14
75051;BME280;63628;47.656;11.310;2023-03-14T02:55:08;93482.47;;;9.64;73.60
75051;BME280;63628;47.656;11.310;2023-03-14T02:57:34;93480.34;;;10.44;75.76
75051;BME280;63628;47.656;11.310;2023-03-14T03:00:02;93466.09;;;9.62;76.68
75051;BME280;63628;47.656;11.310;2023-03-14T03:02:32;93444.41;;;9.60;77.93
75051;BME280;63628;47.656;11.310;2023-03-14T03:05:00;93444.91;;;9.47;76.75
75051;BME280;63628;47.656;11.310;2023-03-14T03:07:27;93432.66;;;10.13;73.02
75051;BME280;63628;47.656;11.310;2023-03-14T03:09:53;93418.53;;;7.67;78.75
75051;BME280;63628;47.656;11.310;2023-03-14T03:12:20;93402.94;;;9.56;78.28
75051;BME280;63628;47.656;11.310;2023-03-14T03:14:46;93388.50;;;10.04;76.20
75051;BME280;63628;47.656;11.310;2023-03-14T03:17:13;93379.75;;;8.48;76.54
75051;BME280;63628;47.656;11.310;2023-03-14T03:19:39;93369.06;;;8.70;75.22
75051;BME280;63628;47.656;11.310;2023-03-14T03:22:07;93360.44;;;9.72;77.35
75051;BME280;63628;47.656;11.310;2023-03-14T03:24:34;93342.25;;;10.11;75.58
75051;BME280;63628;47.656;11.310;2023-03-14T03:27:01;93350.22;;;10.27;75.41
75051;BME280;63628;47.656;11.310;2023-03-14T03:29:27;93340.16;;;10.29;75.73
75051;BME280;63628;47.656;11.310;2023-03-14T03:31:54;93343.06;;;10.27;75.54
75051;BME280;63628;47.656;11.310;2023-03-14T03:34:20;93334.06;;;10.28;74.87
75051;BME280;63628;47.656;11.310;2023-03-14T03:36:47;93336.72;;;10.23;74.59
75051;BME280;63628;47.656;11.310;2023-03-14T03:39:15;93349.16;;;10.28;75.08
75051;BME280;63628;47.656;11.310;2023-03-14T03:41:41;93353.91;;;10.21;75.65
75051;BME280;63628;47.656;11.310;2023-03-14T03:44:08;93359.91;;;9.65;73.06
75051;BME280;63628;47.656;11.310;2023-03-14T03:46:34;93358.91;;;10.07;75.62
75051;BME280;63628;47.656;11.310;2023-03-14T03:49:01;93364.31;;;9.29;75.16
75051;BME280;63628;47.656;11.310;2023-03-14T03:51:28;93376.34;;;10.08;75.56
75051;BME280;63628;47.656;11.310;2023-03-14T03:53:55;93372.16;;;10.22;74.82
75051;BME280;63628;47.656;11.310;2023-03-14T03:56:24;93375.31;;;10.24;75.74
75051;BME280;63628;47.656;11.310;2023-03-14T03:58:50;93380.63;;;10.24;75.00
75051;BME280;63628;47.656;11.310;2023-03-14T04:01:17;93379.81;;;10.24;74.74
75051;BME280;63628;47.656;11.310;2023-03-14T04:03:43;93372.41;;;10.26;74.80
75051;BME280;63628;47.656;11.310;2023-03-14T04:06:12;93360.25;;;10.30;75.21
75051;BME280;63628;47.656;11.310;2023-03-14T04:08:39;93358.41;;;10.30;74.62
75051;BME280;63628;47.656;11.310;2023-03-14T04:11:07;93353.91;;;10.31;74.97
75051;BME280;63628;47.656;11.310;2023-03-14T04:13:35;93342.25;;;10.01;74.53
75051;BME280;63628;47.656;11.310;2023-03-14T04:16:02;93345.78;;;8.56;76.50
75051;BME280;63628;47.656;11.310;2023-03-14T04:18:28;93325.25;;;9.31;78.25
75051;BME280;63628;47.656;11.310;2023-03-14T04:20:57;93310.03;;;9.99;75.70
75051;BME280;63628;47.656;11.310;2023-03-14T04:23:24;93321.63;;;10.13;75.45
75051;BME280;63628;47.656;11.310;2023-03-14T04:25:51;93321.63;;;10.18;75.19
75051;BME280;63628;47.656;11.310;2023-03-14T04:28:18;93333.78;;;10.20;75.05
75051;BME280;63628;47.656;11.310;2023-03-14T04:30:46;93325.88;;;10.20;75.47
75051;BME280;63628;47.656;11.310;2023-03-14T04:33:13;93320.34;;;10.21;74.73
75051;BME280;63628;47.656;11.310;2023-03-14T04:35:43;93319.25;;;9.61;72.37
75051;BME280;63628;47.656;11.310;2023-03-14T04:38:10;93316.38;;;9.88;72.98
75051;BME280;63628;47.656;11.310;2023-03-14T04:40:37;93290.59;;;9.02;80.26
75051;BME280;63628;47.656;11.310;2023-03-14T04:43:04;93277.00;;;9.87;76.99
75051;BME280;63628;47.656;11.310;2023-03-14T04:45:31;93262.44;;;10.09;75.18
75051;BME280;63628;47.656;11.310;2023-03-14T04:47:59;93275.38;;;10.11;75.40
75051;BME280;63628;47.656;11.310;2023-03-14T04:50:25;93269.56;;;10.14;74.81
75051;BME280;63628;47.656;11.310;2023-03-14T04:52:52;93266.66;;;10.15;74.87
75051;BME280;63628;47.656;11.310;2023-03-14T04:55:18;93261.63;;;10.14;75.33
75051;BME280;63628;47.656;11.310;2023-03-14T04:57:45;93246.56;;;10.20;74.15
75051;BME280;63628;47.656;11.310;2023-03-14T05:00:12;93236.78;;;10.15;74.72
75051;BME280;63628;47.656;11.310;2023-03-14T05:02:38;93222.00;;;10.14;74.66
75051;BME280;63628;47.656;11.310;2023-03-14T05:05:07;93215.38;;;10.11;75.21
75051;BME280;63628;47.656;11.310;2023-03-14T05:07:33;93212.47;;;10.13;74.67
75051;BME280;63628;47.656;11.310;2023-03-14T05:10:00;93214.38;;;9.92;71.10
75051;BME280;63628;47.656;11.310;2023-03-14T05:12:27;93217.81;;;9.67;76.68
75051;BME280;63628;47.656;11.310;2023-03-14T05:14:53;93223.59;;;10.00;75.48
75051;BME280;63628;47.656;11.310;2023-03-14T05:17:20;93216.19;;;10.07;74.79
75051;BME280;63628;47.656;11.310;2023-03-14T05:19:46;93224.94;;;9.62;76.09
75051;BME280;63628;47.656;11.310;2023-03-14T05:22:14;93220.44;;;9.98;75.19
75051;BME280;63628;47.656;11.310;2023-03-14T05:24:41;93228.63;;;10.01;74.86
75051;BME280;63628;47.656;11.310;2023-03-14T05:27:07;93226.28;;;9.29;74.99
75051;BME280;63628;47.656;11.310;2023-03-14T05:29:34;93219.66;;;9.21;77.22
75051;BME280;63628;47.656;11.310;2023-03-14T05:32:01;93210.94;;;9.71;75.76
75051;BME280;63628;47.656;11.310;2023-03-14T05:34:27;93210.41;;;10.00;74.90
75051;BME280;63628;47.656;11.310;2023-03-14T05:36:54;93214.09;;;10.04;75.41
75051;BME280;63628;47.656;11.310;2023-03-14T05:39:23;93200.34;;;10.02;75.07
75051;BME280;63628;47.656;11.310;2023-03-14T05:41:50;93204.09;;;9.75;72.73
75051;BME280;63628;47.656;11.310;2023-03-14T05:44:17;93192.44;;;9.92;75.11
75051;BME280;63628;47.656;11.310;2023-03-14T05:46:43;93192.69;;;9.95;75.51
75051;BME280;63628;47.656;11.310;2023-03-14T05:49:10;93190.31;;;9.94;75.13
75051;BME280;63628;47.656;11.310;2023-03-14T05:51:37;93186.63;;;9.95;75.30
75051;BME280;63628;47.656;11.310;2023-03-14T05:54:03;93184.50;;;9.97;74.96
75051;BME280;63628;47.656;11.310;2023-03-14T05:56:31;93192.97;;;9.94;75.15
75051;BME280;63628;47.656;11.310;2023-03-14T05:58:58;93190.06;;;9.95;74.84
75051;BME280;63628;47.656;11.310;2023-03-14T06:01:24;93187.16;;;9.92;75.10
75051;BME280;63628;47.656;11.310;2023-03-14T06:03:51;93178.69;;;9.95;75.26
75051;BME280;63628;47.656;11.310;2023-03-14T06:06:18;93184.50;;;9.97;75.04
75051;BME280;63628;47.656;11.310;2023-03-14T06:08:44;93178.94;;;9.98;74.85
75051;BME280;63628;47.656;11.310;2023-03-14T06:11:11;93163.88;;;9.99;74.59
75051;BME280;63628;47.656;11.310;2023-03-14T06:13:39;93145.41;;;9.94;75.15
75051;BME280;63628;47.656;11.310;2023-03-14T06:16:06;93135.38;;;9.91;75.59
75051;BME280;63628;47.656;11.310;2023-03-14T06:18:33;93123.22;;;9.90;75.23
75051;BME280;63628;47.656;11.310;2023-03-14T06:20:59;93117.47;;;9.57;72.87
75051;BME280;63628;47.656;11.310;2023-03-14T06:23:26;93112.47;;;8.59;78.52
75051;BME280;63628;47.656;11.310;2023-03-14T06:25:53;93108.47;;;9.63;75.99
75051;BME280;63628;47.656;11.310;2023-03-14T06:28:19;93131.97;;;9.85;75.24
75051;BME280;63628;47.656;11.310;2023-03-14T06:30:47;93137.00;;;9.66;71.70
75051;BME280;63628;47.656;11.310;2023-03-14T06:33:14;93136.75;;;8.76;75.91
75051;BME280;63628;47.656;11.310;2023-03-14T06:35:40;93153.63;;;8.70;79.71
75051;BME280;63628;47.656;11.310;2023-03-14T06:38:07;93148.63;;;9.60;76.12
75051;BME280;63628;47.656;11.310;2023-03-14T06:40:34;93152.84;;;9.76;74.97
75051;BME280;63628;47.656;11.310;2023-03-14T06:43:00;93150.19;;;9.87;75.15
75051;BME280;63628;47.656;11.310;2023-03-14T06:45:27;93152.28;;;9.90;74.32
75051;BME280;63628;47.656;11.310;2023-03-14T06:47:55;93145.41;;;9.89;74.97
75051;BME280;63628;47.656;11.310;2023-03-14T06:50:22;93149.09;;;9.93;74.24
75051;BME280;63628;47.656;11.310;2023-03-14T06:52:49;93143.88;;;8.96;74.69
75051;BME280;63628;47.656;11.310;2023-03-14T06:55:16;93159.25;;;8.26;80.85
75051;BME280;63628;47.656;11.310;2023-03-14T06:57:43;93151.28;;;9.40;76.75
75051;BME280;63628;47.656;11.310;2023-03-14T07:00:11;93153.63;;;9.67;75.32
75051;BME280;63628;47.656;11.310;2023-03-14T07:02:38;93150.44;;;9.75;75.92
75051;BME280;63628;47.656;11.310;2023-03-14T07:05:10;93149.94;;;9.83;75.27
75051;BME280;63628;47.656;11.310;2023-03-14T07:07:36;93149.94;;;9.78;74.58
75051;BME280;63628;47.656;11.310;2023-03-14T07:10:04;93160.75;;;9.81;74.83
75051;BME280;63628;47.656;11.310;2023-03-14T07:12:30;93161.28;;;9.78;74.83
75051;BME280;63628;47.656;11.310;2023-03-14T07:14:57;93154.41;;;9.82;74.97
75051;BME280;63628;47.656;11.310;2023-03-14T07:17:37;93150.53;;;9.19;77.49
75051;BME280;63628;47.656;11.310;2023-03-14T07:20:05;93144.94;;;9.46;74.87
75051;BME280;63628;47.656;11.310;2023-03-14T07:22:35;93143.63;;;9.43;76.15
75051;BME280;63628;47.656;11.310;2023-03-14T07:25:01;93152.81;;;9.71;74.75
75051;BME280;63628;47.656;11.310;2023-03-14T07:27:28;93158.66;;;9.68;74.61
75051;BME280;63628;47.656;11.310;2023-03-14T07:29:54;93158.94;;;9.77;75.46
75051;BME280;63628;47.656;11.310;2023-03-14T07:32:21;93148.09;;;9.63;75.59
75051;BME280;63628;47.656;11.310;2023-03-14T07:34:48;93163.66;;;9.65;75.60
75051;BME280;63628;47.656;11.310;2023-03-14T07:37:14;93159.44;;;9.69;75.00
75051;BME280;63628;47.656;11.310;2023-03-14T07:39:42;93154.72;;;9.50;73.81
75051;BME280;63628;47.656;11.310;2023-03-14T07:42:09;93143.38;;;9.04;77.66
75051;BME280;63628;47.656;11.310;2023-03-14T07:44:37;93136.00;;;9.37;76.53
75051;BME280;63628;47.656;11.310;2023-03-14T07:47:03;93148.66;;;9.45;76.26
75051;BME280;63628;47.656;11.310;2023-03-14T07:49:30;93148.91;;;9.03;78.09
75051;BME280;63628;47.656;11.310;2023-03-14T07:51:57;93150.47;;;8.06;83.81
75051;BME280;63628;47.656;11.310;2023-03-14T07:54:24;93153.78;;;8.38;83.26
75051;BME280;63628;47.656;11.310;2023-03-14T07:56:52;93142.59;;;9.34;77.14
75051;BME280;63628;47.656;11.310;2023-03-14T07:59:19;93146.53;;;9.52;75.72
75051;BME280;63628;47.656;11.310;2023-03-14T08:01:46;93146.00;;;9.55;75.93
75051;BME280;63628;47.656;11.310;2023-03-14T08:04:12;93148.38;;;9.57;75.59
75051;BME280;63628;47.656;11.310;2023-03-14T08:06:39;93149.72;;;9.13;77.33
75051;BME280;63628;47.656;11.310;2023-03-14T08:09:05;93151.84;;;9.21;77.24
75051;BME280;63628;47.656;11.310;2023-03-14T08:11:32;93150.22;;;9.51;75.97
75051;BME280;63628;47.656;11.310;2023-03-14T08:14:00;93147.06;;;9.54;76.03
75051;BME280;63628;47.656;11.310;2023-03-14T08:16:26;93150.75;;;9.58;75.11
75051;BME280;63628;47.656;11.310;2023-03-14T08:18:53;93149.94;;;9.63;75.63
75051;BME280;63628;47.656;11.310;2023-03-14T08:21:20;93143.34;;;9.65;75.31
75051;BME280;63628;47.656;11.310;2023-03-14T08:23:46;93136.75;;;9.63;75.23
75051;BME280;63628;47.656;11.310;2023-03-14T08:26:13;93150.22;;;9.56;75.36
75051;BME280;63628;47.656;11.310;2023-03-14T08:28:40;93147.31;;;9.63;75.78
75051;BME280;63628;47.656;11.310;2023-03-14T08:31:08;93145.19;;;9.60;75.33
75051;BME280;63628;47.656;11.310;2023-03-14T08:33:34;93154.97;;;9.54;75.49
75051;BME280;63628;47.656;11.310;2023-03-14T08:36:01;93144.44;;;9.39;76.56
75051;BME280;63628;47.656;11.310;2023-03-14T08:38:28;93157.88;;;9.47;76.27
75051;BME280;63628;47.656;11.310;2023-03-14T08:40:56;93166.34;;;9.49;75.95
75051;BME280;63628;47.656;11.310;2023-03-14T08:43:23;93169.75;;;9.60;75.26
75051;BME280;63628;47.656;11.310;2023-03-14T08:45:49;93173.75;;;9.27;78.02
75051;BME280;63628;47.656;11.310;2023-03-14T08:48:17;93193.16;;;8.60;81.27
75051;BME280;63628;47.656;11.310;2023-03-14T08:50:45;93199.59;;;9.35;77.08
75051;BME280;63628;47.656;11.310;2023-03-14T08:53:12;93204.81;;;8.89;79.89
75051;BME280;63628;47.656;11.310;2023-03-14T08:55:39;93205.06;;;8.20;84.17
75051;BME280;63628;47.656;11.310;2023-03-14T08:58:05;93214.31;;;8.90;79.39
75051;BME280;63628;47.656;11.310;2023-03-14T09:00:32;93210.16;;;9.15;78.17
75051;BME280;63628;47.656;11.310;2023-03-14T09:02:59;93232.59;;;9.38;77.02
75051;BME280;63628;47.656;11.310;2023-03-14T09:05:27;93211.22;;;9.14;78.07
75051;BME280;63628;47.656;11.310;2023-03-14T09:07:53;93201.09;;;8.70;81.12
75051;BME280;63628;47.656;11.310;2023-03-14T09:10:20;93214.56;;;8.84;80.13
75051;BME280;63628;47.656;11.310;2023-03-14T09:12:46;93214.00;;;8.67;82.18
75051;BME280;63628;47.656;11.310;2023-03-14T09:15:13;93202.63;;;8.51;82.34
75051;BME280;63628;47.656;11.310;2023-03-14T09:17:42;93189.50;;;8.71;80.21
75051;BME280;63628;47.656;11.310;2023-03-14T09:20:10;93189.84;;;9.26;77.58
75051;BME280;63628;47.656;11.310;2023-03-14T09:22:38;93191.13;;;9.03;77.39
75051;BME280;63628;47.656;11.310;2023-03-14T09:25:05;93180.81;;;7.66;82.41
75051;BME280;63628;47.656;11.310;2023-03-14T09:27:32;93173.16;;;8.89;78.42
75051;BME280;63628;47.656;11.310;2023-03-14T09:29:59;93166.00;;;8.60;74.88
75051;BME280;63628;47.656;11.310;2023-03-14T09:32:26;93166.22;;;8.48;77.14
75051;BME280;63628;47.656;11.310;2023-03-14T09:34:52;93142.03;;;8.92;75.89
75051;BME280;63628;47.656;11.310;2023-03-14T09:37:19;93148.13;;;9.07;76.63
75051;BME280;63628;47.656;11.310;2023-03-14T09:39:48;93144.44;;;9.24;76.07
75051;BME280;63628;47.656;11.310;2023-03-14T09:42:17;93151.31;;;9.30;76.32
75051;BME280;63628;47.656;11.310;2023-03-14T09:44:53;93147.09;;;9.29;76.36
75051;BME280;63628;47.656;11.310;2023-03-14T09:47:20;93153.13;;;9.04;75.55
75051;BME280;63628;47.656;11.310;2023-03-14T09:49:48;93150.44;;;8.63;77.07
75051;BME280;63628;47.656;11.310;2023-03-14T09:52:17;93157.22;;;8.44;74.98
75051;BME280;63628;47.656;11.310;2023-03-14T09:54:49;93153.91;;;9.04;76.31
75051;BME280;63628;47.656;11.310;2023-03-14T09:57:18;93150.75;;;9.07;75.89
75051;BME280;63628;47.656;11.310;2023-03-14T09:59:46;93150.47;;;8.73;73.40
75051;BME280;63628;47.656;11.310;2023-03-14T10:02:17;93147.28;;;8.66;74.12
75051;BME280;63628;47.656;11.310;2023-03-14T10:04:45;93156.94;;;8.40;74.34
75051;BME280;63628;47.656;11.310;2023-03-14T10:07:14;93153.03;;;8.48;76.39
75051;BME280;63628;47.656;11.310;2023-03-14T10:09:43;93157.56;;;8.68;76.30
75051;BME280;63628;47.656;11.310;2023-03-14T10:12:11;93162.88;;;8.98;75.50
75051;BME280;63628;47.656;11.310;2023-03-14T10:14:45;93157.34;;;8.89;73.97
75051;BME280;63628;47.656;11.310;2023-03-14T10:17:13;93152.59;;;8.92;75.89
75051;BME280;63628;47.656;11.310;2023-03-14T10:19:51;93156.06;;;9.17;75.56
75051;BME280;63628;47.656;11.310;2023-03-14T10:22:19;93162.66;;;9.20;75.54
75051;BME280;63628;47.656;11.310;2023-03-14T10:24:47;93156.56;;;11.67;76.22
75051;BME280;63628;47.656;11.310;2023-03-14T10:27:20;93159.44;;;11.76;67.98
75051;BME280;63628;47.656;11.310;2023-03-14T10:29:57;93159.81;;;10.37;70.36
75051;BME280;63628;47.656;11.310;2023-03-14T10:32:33;93162.50;;;10.81;67.74
75051;BME280;63628;47.656;11.310;2023-03-14T10:35:07;93156.56;;;10.55;69.67
75051;BME280;63628;47.656;11.310;2023-03-14T10:37:35;93154.41;;;9.67;71.22
75051;BME280;63628;47.656;11.310;2023-03-14T10:40:04;93156.50;;;9.96;70.31
75051;BME280;63628;47.656;11.310;2023-03-14T10:42:34;93159.34;;;10.14;74.15
75051;BME280;63628;47.656;11.310;2023-03-14T10:45:29;93153.84;;;9.96;71.23
75051;BME280;63628;47.656;11.310;2023-03-14T10:47:53;93161.56;;;9.67;73.16
75051;BME280;63628;47.656;11.310;2023-03-14T10:50:26;93164.97;;;9.72;71.32
75051;BME280;63628;47.656;11.310;2023-03-14T10:52:54;93167.09;;;9.85;72.80
75051;BME280;63628;47.656;11.310;2023-03-14T10:55:40;93161.81;;;9.85;72.19
75051;BME280;63628;47.656;11.310;2023-03-14T10:58:23;93160.78;;;9.76;73.72
75051;BME280;63628;47.656;11.310;2023-03-14T11:00:57;93158.50;;;10.34;69.14
75051;BME280;63628;47.656;11.310;2023-03-14T11:03:27;93164.25;;;10.52;73.04
75051;BME280;63628;47.656;11.310;2023-03-14T11:05:57;93164.50;;;10.99;67.17
75051;BME280;63628;47.656;11.310;2023-03-14T11:08:29;93168.03;;;10.85;68.74
75051;BME280;63628;47.656;11.310;2023-03-14T11:11:07;93161.34;;;10.53;67.90
75051;BME280;63628;47.656;11.310;2023-03-14T11:13:40;93166.22;;;10.80;66.16
75051;BME280;63628;47.656;11.310;2023-03-14T11:16:16;93163.88;;;10.73;68.21
75051;BME280;63628;47.656;11.310;2023-03-14T11:21:37;93165.94;;;10.17;70.01
75051;BME280;63628;47.656;11.310;2023-03-14T11:27:00;93171.69;;;10.50;69.39
75051;BME280;63628;47.656;11.310;2023-03-14T11:29:37;93167.78;;;10.27;70.98
75051;BME280;63628;47.656;11.310;2023-03-14T11:32:12;93168.75;;;10.51;66.60
75051;BME280;63628;47.656;11.310;2023-03-14T11:34:44;93169.56;;;10.46;67.16
75051;BME280;63628;47.656;11.310;2023-03-14T11:37:22;93164.59;;;10.30;68.17
75051;BME280;63628;47.656;11.310;2023-03-14T11:39:56;93166.22;;;10.15;69.47
75051;BME280;63628;47.656;11.310;2023-03-14T11:42:26;93155.88;;;10.19;71.08
75051;BME280;63628;47.656;11.310;2023-03-14T11:44:54;93164.53;;;10.50;67.72
75051;BME280;63628;47.656;11.310;2023-03-14T11:47:24;93148.91;;;10.54;69.13
75051;BME280;63628;47.656;11.310;2023-03-14T11:49:57;93155.88;;;10.19;71.79
75051;BME280;63628;47.656;11.310;2023-03-14T11:52:31;93148.69;;;10.45;68.00
75051;BME280;63628;47.656;11.310;2023-03-14T11:55:02;93155.56;;;10.46;66.80
75051;BME280;63628;47.656;11.310;2023-03-14T11:57:31;93152.88;;;10.56;66.07
75051;BME280;63628;47.656;11.310;2023-03-14T12:00:00;93149.78;;;10.34;68.25
75051;BME280;63628;47.656;11.310;2023-03-14T12:02:35;93155.06;;;10.34;67.34
75051;BME280;63628;47.656;11.310;2023-03-14T12:05:26;93162.13;;;10.54;67.52
75051;BME280;63628;47.656;11.310;2023-03-14T12:11:05;93159.75;;;10.57;68.57
75051;BME280;63628;47.656;11.310;2023-03-14T12:13:37;93162.94;;;10.54;67.09
75051;BME280;63628;47.656;11.310;2023-03-14T12:16:06;93161.59;;;10.57;67.58
75051;BME280;63628;47.656;11.310;2023-03-14T12:18:35;93161.38;;;10.48;68.28
75051;BME280;63628;47.656;11.310;2023-03-14T12:21:06;93160.03;;;10.51;68.49
75051;BME280;63628;47.656;11.310;2023-03-14T12:23:37;93160.75;;;10.66;66.89
75051;BME280;63628;47.656;11.310;2023-03-14T12:26:13;93167.28;;;10.79;66.73
75051;BME280;63628;47.656;11.310;2023-03-14T12:28:43;93160.16;;;10.10;71.29
75051;BME280;63628;47.656;11.310;2023-03-14T12:31:37;93160.84;;;10.46;70.52
75051;BME280;63628;47.656;11.310;2023-03-14T12:34:28;93158.78;;;10.28;69.38
75051;BME280;63628;47.656;11.310;2023-03-14T12:37:04;93156.13;;;10.33;68.44
75051;BME280;63628;47.656;11.310;2023-03-14T12:39:37;93161.94;;;10.30;70.56
75051;BME280;63628;47.656;11.310;2023-03-14T12:42:10;93171.53;;;10.05;72.91
75051;BME280;63628;47.656;11.310;2023-03-14T12:44:43;93168.88;;;10.21;70.65
75051;BME280;63628;47.656;11.310;2023-03-14T12:50:16;93181.88;;;9.97;73.20
75051;BME280;63628;47.656;11.310;2023-03-14T12:52:55;93166.34;;;10.60;66.80
75051;BME280;63628;47.656;11.310;2023-03-14T12:55:32;93166.22;;;10.80;69.69
75051;BME280;63628;47.656;11.310;2023-03-14T12:58:08;93169.06;;;10.39;68.41
75051;BME280;63628;47.656;11.310;2023-03-14T13:00:40;93160.78;;;11.05;62.49
75051;BME280;63628;47.656;11.310;2023-03-14T13:03:18;93150.81;;;10.43;69.78
75051;BME280;63628;47.656;11.310;2023-03-14T13:05:52;93167.25;;;10.84;67.92
75051;BME280;63628;47.656;11.310;2023-03-14T13:08:34;93172.72;;;10.98;68.01
75051;BME280;63628;47.656;11.310;2023-03-14T13:11:05;93193.75;;;11.23;64.50
75051;BME280;63628;47.656;11.310;2023-03-14T13:13:34;93199.91;;;10.64;68.97
75051;BME280;63628;47.656;11.310;2023-03-14T13:16:02;93204.72;;;11.01;68.07
75051;BME280;63628;47.656;11.310;2023-03-14T13:18:35;93190.00;;;10.26;70.36